BIENTÔT MET'MAP
version 2.0 !

Prévue avant fin octobre,
la nouvelle version sera
plus belle, plus complète
et hébergée sur un serveur
3 fois plus puissant...
et toujours gratuite !


Pas compatible ?
Essayez la version Mobile !

SE CONNECTER : | S'inscrire | Disclaimer | Découvrir Orbifly |
Code OACI :

TAF - LIMA Torino / Aeritalia Airport - 02 Jun 2020 06:46 UTC
Data Sources :     NOAA   


- Altitude de l'aérodrome : 943 ft
- Pas de NOTAMs connus.


LIMA - Torino / Aeritalia Airport

Dernier METAR connu : 2015/08/11 07:50 LIMA 110750Z 26006KT 220V310 CAVOK 26/14 Q1015
PAS DE TAF


MET'MAP, la Météo Aéronautique d'un coup d'oeil ! - Copyright ORBIFLY Décembre 2007

Développement & Programmation : Alexandra Zaïnal
Co-Développement : Marc-Olivier Méhu
Soutien technique & logistique : Manuel Goepfert
Conception & Financement : Baudouin d'Aumeries